sensor_id;sensor_type;location;lat;lon;timestamp;P1;durP1;ratioP1;P2;durP2;ratioP2
13441;SDS011;6793;55.662;13.114;2023-02-28T00:01:13;0.00;;;0.00;;
13441;SDS011;6793;55.662;13.114;2023-02-28T00:03:40;0.00;;;0.00;;
13441;SDS011;6793;55.662;13.114;2023-02-28T00:06:07;0.00;;;0.00;;
13441;SDS011;6793;55.662;13.114;2023-02-28T00:08:36;0.00;;;0.00;;
13441;SDS011;6793;55.662;13.114;2023-02-28T00:11:04;0.00;;;0.00;;
13441;SDS011;6793;55.662;13.114;2023-02-28T00:13:31;0.00;;;0.00;;
13441;SDS011;6793;55.662;13.114;2023-02-28T00:16:00;0.00;;;0.00;;
13441;SDS011;6793;55.662;13.114;2023-02-28T00:18:28;0.00;;;0.00;;
13441;SDS011;6793;55.662;13.114;2023-02-28T00:20:55;0.00;;;0.00;;
13441;SDS011;6793;55.662;13.114;2023-02-28T00:23:22;0.00;;;0.00;;
13441;SDS011;6793;55.662;13.114;2023-02-28T00:25:50;0.00;;;0.00;;
13441;SDS011;6793;55.662;13.114;2023-02-28T00:28:19;0.00;;;0.00;;
13441;SDS011;6793;55.662;13.114;2023-02-28T00:30:46;0.00;;;0.00;;
13441;SDS011;6793;55.662;13.114;2023-02-28T00:33:13;0.00;;;0.00;;
13441;SDS011;6793;55.662;13.114;2023-02-28T00:35:40;0.00;;;0.00;;
13441;SDS011;6793;55.662;13.114;2023-02-28T00:38:07;0.00;;;0.00;;
13441;SDS011;6793;55.662;13.114;2023-02-28T00:40:34;0.00;;;0.00;;
13441;SDS011;6793;55.662;13.114;2023-02-28T00:43:02;0.00;;;0.00;;
13441;SDS011;6793;55.662;13.114;2023-02-28T00:45:29;0.00;;;0.00;;
13441;SDS011;6793;55.662;13.114;2023-02-28T00:47:57;0.00;;;0.00;;
13441;SDS011;6793;55.662;13.114;2023-02-28T00:50:24;0.00;;;0.00;;
13441;SDS011;6793;55.662;13.114;2023-02-28T00:52:51;0.00;;;0.00;;
13441;SDS011;6793;55.662;13.114;2023-02-28T00:55:18;0.00;;;0.00;;
13441;SDS011;6793;55.662;13.114;2023-02-28T00:57:45;0.00;;;0.00;;
13441;SDS011;6793;55.662;13.114;2023-02-28T01:00:14;0.10;;;0.10;;
13441;SDS011;6793;55.662;13.114;2023-02-28T01:02:41;0.00;;;0.00;;
13441;SDS011;6793;55.662;13.114;2023-02-28T01:05:08;0.00;;;0.00;;
13441;SDS011;6793;55.662;13.114;2023-02-28T01:07:35;0.00;;;0.00;;
13441;SDS011;6793;55.662;13.114;2023-02-28T01:10:03;0.00;;;0.00;;
13441;SDS011;6793;55.662;13.114;2023-02-28T01:12:30;0.00;;;0.00;;
13441;SDS011;6793;55.662;13.114;2023-02-28T01:14:57;0.00;;;0.00;;
13441;SDS011;6793;55.662;13.114;2023-02-28T01:17:26;0.00;;;0.00;;
13441;SDS011;6793;55.662;13.114;2023-02-28T01:19:53;0.00;;;0.00;;
13441;SDS011;6793;55.662;13.114;2023-02-28T01:22:20;0.00;;;0.00;;
13441;SDS011;6793;55.662;13.114;2023-02-28T01:24:50;0.00;;;0.00;;
13441;SDS011;6793;55.662;13.114;2023-02-28T01:27:17;0.00;;;0.00;;
13441;SDS011;6793;55.662;13.114;2023-02-28T01:29:44;0.00;;;0.00;;
13441;SDS011;6793;55.662;13.114;2023-02-28T01:32:11;0.00;;;0.00;;
13441;SDS011;6793;55.662;13.114;2023-02-28T01:34:40;0.00;;;0.00;;
13441;SDS011;6793;55.662;13.114;2023-02-28T01:37:07;0.10;;;0.10;;
13441;SDS011;6793;55.662;13.114;2023-02-28T01:39:34;0.10;;;0.10;;
13441;SDS011;6793;55.662;13.114;2023-02-28T01:42:01;0.10;;;0.10;;
13441;SDS011;6793;55.662;13.114;2023-02-28T01:47:14;0.10;;;0.10;;
13441;SDS011;6793;55.662;13.114;2023-02-28T01:49:42;0.00;;;0.00;;
13441;SDS011;6793;55.662;13.114;2023-02-28T01:52:09;0.10;;;0.10;;
13441;SDS011;6793;55.662;13.114;2023-02-28T01:54:39;0.10;;;0.10;;
13441;SDS011;6793;55.662;13.114;2023-02-28T01:57:08;0.10;;;0.10;;
13441;SDS011;6793;55.662;13.114;2023-02-28T01:59:37;0.10;;;0.10;;
13441;SDS011;6793;55.662;13.114;2023-02-28T02:02:05;0.10;;;0.10;;
13441;SDS011;6793;55.662;13.114;2023-02-28T02:04:34;0.10;;;0.10;;
13441;SDS011;6793;55.662;13.114;2023-02-28T02:07:03;0.10;;;0.10;;
13441;SDS011;6793;55.662;13.114;2023-02-28T02:09:30;0.10;;;0.10;;
13441;SDS011;6793;55.662;13.114;2023-02-28T02:11:57;0.10;;;0.10;;
13441;SDS011;6793;55.662;13.114;2023-02-28T02:14:31;0.10;;;0.10;;
13441;SDS011;6793;55.662;13.114;2023-02-28T02:17:09;0.10;;;0.10;;
13441;SDS011;6793;55.662;13.114;2023-02-28T02:22:45;0.10;;;0.10;;
13441;SDS011;6793;55.662;13.114;2023-02-28T02:25:23;0.10;;;0.10;;
13441;SDS011;6793;55.662;13.114;2023-02-28T02:27:58;0.10;;;0.10;;
13441;SDS011;6793;55.662;13.114;2023-02-28T02:30:33;0.10;;;0.10;;
13441;SDS011;6793;55.662;13.114;2023-02-28T02:33:26;0.10;;;0.10;;
13441;SDS011;6793;55.662;13.114;2023-02-28T02:36:03;0.20;;;0.20;;
13441;SDS011;6793;55.662;13.114;2023-02-28T02:38:32;0.20;;;0.20;;
13441;SDS011;6793;55.662;13.114;2023-02-28T02:41:04;0.10;;;0.10;;
13441;SDS011;6793;55.662;13.114;2023-02-28T02:43:32;0.20;;;0.20;;
13441;SDS011;6793;55.662;13.114;2023-02-28T02:46:02;0.20;;;0.20;;
13441;SDS011;6793;55.662;13.114;2023-02-28T02:48:32;0.20;;;0.20;;
13441;SDS011;6793;55.662;13.114;2023-02-28T02:51:01;0.20;;;0.20;;
13441;SDS011;6793;55.662;13.114;2023-02-28T02:53:33;0.20;;;0.20;;
13441;SDS011;6793;55.662;13.114;2023-02-28T02:56:01;0.20;;;0.20;;
13441;SDS011;6793;55.662;13.114;2023-02-28T02:58:30;0.20;;;0.20;;
13441;SDS011;6793;55.662;13.114;2023-02-28T03:00:59;0.30;;;0.30;;
13441;SDS011;6793;55.662;13.114;2023-02-28T03:03:26;0.40;;;0.40;;
13441;SDS011;6793;55.662;13.114;2023-02-28T03:05:55;0.30;;;0.30;;
13441;SDS011;6793;55.662;13.114;2023-02-28T03:08:22;0.30;;;0.30;;
13441;SDS011;6793;55.662;13.114;2023-02-28T03:10:51;0.30;;;0.30;;
13441;SDS011;6793;55.662;13.114;2023-02-28T03:13:22;0.30;;;0.30;;
13441;SDS011;6793;55.662;13.114;2023-02-28T03:15:58;0.40;;;0.40;;
13441;SDS011;6793;55.662;13.114;2023-02-28T03:18:31;0.40;;;0.40;;
13441;SDS011;6793;55.662;13.114;2023-02-28T03:21:02;0.30;;;0.30;;
13441;SDS011;6793;55.662;13.114;2023-02-28T03:23:35;0.30;;;0.30;;
13441;SDS011;6793;55.662;13.114;2023-02-28T03:26:07;0.30;;;0.30;;
13441;SDS011;6793;55.662;13.114;2023-02-28T03:28:41;0.20;;;0.20;;
13441;SDS011;6793;55.662;13.114;2023-02-28T03:31:13;0.30;;;0.30;;
13441;SDS011;6793;55.662;13.114;2023-02-28T03:33:42;0.30;;;0.30;;
13441;SDS011;6793;55.662;13.114;2023-02-28T03:36:12;0.30;;;0.30;;
13441;SDS011;6793;55.662;13.114;2023-02-28T03:38:41;0.20;;;0.20;;
13441;SDS011;6793;55.662;13.114;2023-02-28T03:41:13;0.20;;;0.20;;
13441;SDS011;6793;55.662;13.114;2023-02-28T03:43:41;0.10;;;0.10;;
13441;SDS011;6793;55.662;13.114;2023-02-28T03:46:10;0.20;;;0.20;;
13441;SDS011;6793;55.662;13.114;2023-02-28T03:48:40;0.20;;;0.20;;
13441;SDS011;6793;55.662;13.114;2023-02-28T03:51:08;0.20;;;0.20;;
13441;SDS011;6793;55.662;13.114;2023-02-28T03:53:37;0.30;;;0.30;;
13441;SDS011;6793;55.662;13.114;2023-02-28T03:56:06;0.30;;;0.30;;
13441;SDS011;6793;55.662;13.114;2023-02-28T03:58:37;0.20;;;0.20;;
13441;SDS011;6793;55.662;13.114;2023-02-28T04:01:07;0.20;;;0.20;;
13441;SDS011;6793;55.662;13.114;2023-02-28T04:03:36;0.20;;;0.20;;
13441;SDS011;6793;55.662;13.114;2023-02-28T04:06:04;0.20;;;0.20;;
13441;SDS011;6793;55.662;13.114;2023-02-28T04:08:31;0.20;;;0.20;;
13441;SDS011;6793;55.662;13.114;2023-02-28T04:11:00;0.10;;;0.10;;
13441;SDS011;6793;55.662;13.114;2023-02-28T04:13:28;0.20;;;0.20;;
13441;SDS011;6793;55.662;13.114;2023-02-28T04:15:56;0.20;;;0.20;;
13441;SDS011;6793;55.662;13.114;2023-02-28T04:18:23;0.30;;;0.30;;
13441;SDS011;6793;55.662;13.114;2023-02-28T04:20:50;0.20;;;0.20;;
13441;SDS011;6793;55.662;13.114;2023-02-28T04:23:17;0.20;;;0.20;;
13441;SDS011;6793;55.662;13.114;2023-02-28T04:25:44;0.30;;;0.30;;
13441;SDS011;6793;55.662;13.114;2023-02-28T04:28:11;0.40;;;0.40;;
13441;SDS011;6793;55.662;13.114;2023-02-28T04:30:38;0.50;;;0.50;;
13441;SDS011;6793;55.662;13.114;2023-02-28T04:33:07;0.60;;;0.60;;
13441;SDS011;6793;55.662;13.114;2023-02-28T04:35:34;0.50;;;0.50;;
13441;SDS011;6793;55.662;13.114;2023-02-28T04:38:01;0.90;;;0.90;;
13441;SDS011;6793;55.662;13.114;2023-02-28T04:40:28;0.90;;;0.90;;
13441;SDS011;6793;55.662;13.114;2023-02-28T04:42:55;0.80;;;0.80;;
13441;SDS011;6793;55.662;13.114;2023-02-28T04:45:22;0.70;;;0.70;;
13441;SDS011;6793;55.662;13.114;2023-02-28T04:47:49;0.50;;;0.50;;
13441;SDS011;6793;55.662;13.114;2023-02-28T04:50:18;0.60;;;0.60;;
13441;SDS011;6793;55.662;13.114;2023-02-28T04:52:45;0.50;;;0.50;;
13441;SDS011;6793;55.662;13.114;2023-02-28T04:55:12;0.50;;;0.50;;
13441;SDS011;6793;55.662;13.114;2023-02-28T04:57:39;0.50;;;0.50;;
13441;SDS011;6793;55.662;13.114;2023-02-28T05:00:08;0.50;;;0.50;;
13441;SDS011;6793;55.662;13.114;2023-02-28T05:02:36;0.40;;;0.40;;
13441;SDS011;6793;55.662;13.114;2023-02-28T05:05:04;0.40;;;0.40;;
13441;SDS011;6793;55.662;13.114;2023-02-28T05:07:33;0.40;;;0.40;;
13441;SDS011;6793;55.662;13.114;2023-02-28T05:10:00;0.40;;;0.40;;
13441;SDS011;6793;55.662;13.114;2023-02-28T05:12:27;0.50;;;0.50;;
13441;SDS011;6793;55.662;13.114;2023-02-28T05:14:54;0.60;;;0.60;;
13441;SDS011;6793;55.662;13.114;2023-02-28T05:17:21;0.73;;;0.73;;
13441;SDS011;6793;55.662;13.114;2023-02-28T05:19:48;0.67;;;0.67;;
13441;SDS011;6793;55.662;13.114;2023-02-28T05:22:16;0.70;;;0.70;;
13441;SDS011;6793;55.662;13.114;2023-02-28T05:24:44;0.60;;;0.60;;
13441;SDS011;6793;55.662;13.114;2023-02-28T05:27:11;0.40;;;0.40;;
13441;SDS011;6793;55.662;13.114;2023-02-28T05:29:38;0.50;;;0.50;;
13441;SDS011;6793;55.662;13.114;2023-02-28T05:32:08;0.60;;;0.60;;
13441;SDS011;6793;55.662;13.114;2023-02-28T05:34:36;0.60;;;0.60;;
13441;SDS011;6793;55.662;13.114;2023-02-28T05:37:03;0.50;;;0.50;;
13441;SDS011;6793;55.662;13.114;2023-02-28T05:39:31;0.50;;;0.50;;
13441;SDS011;6793;55.662;13.114;2023-02-28T05:41:59;0.40;;;0.40;;
13441;SDS011;6793;55.662;13.114;2023-02-28T05:44:26;0.40;;;0.40;;
13441;SDS011;6793;55.662;13.114;2023-02-28T05:46:53;0.30;;;0.30;;
13441;SDS011;6793;55.662;13.114;2023-02-28T05:49:20;0.40;;;0.40;;
13441;SDS011;6793;55.662;13.114;2023-02-28T05:51:47;0.40;;;0.40;;
13441;SDS011;6793;55.662;13.114;2023-02-28T05:54:14;0.40;;;0.40;;
13441;SDS011;6793;55.662;13.114;2023-02-28T05:56:41;0.40;;;0.40;;
13441;SDS011;6793;55.662;13.114;2023-02-28T05:59:12;0.43;;;0.43;;
13441;SDS011;6793;55.662;13.114;2023-02-28T06:01:39;0.50;;;0.50;;
13441;SDS011;6793;55.662;13.114;2023-02-28T06:04:09;0.50;;;0.50;;
13441;SDS011;6793;55.662;13.114;2023-02-28T06:06:38;0.50;;;0.50;;
13441;SDS011;6793;55.662;13.114;2023-02-28T06:09:05;0.50;;;0.50;;
13441;SDS011;6793;55.662;13.114;2023-02-28T06:11:33;0.50;;;0.50;;
13441;SDS011;6793;55.662;13.114;2023-02-28T06:14:01;0.43;;;0.43;;
13441;SDS011;6793;55.662;13.114;2023-02-28T06:16:30;0.40;;;0.40;;
13441;SDS011;6793;55.662;13.114;2023-02-28T06:18:58;0.40;;;0.40;;
13441;SDS011;6793;55.662;13.114;2023-02-28T06:21:25;0.40;;;0.40;;
13441;SDS011;6793;55.662;13.114;2023-02-28T06:23:53;0.40;;;0.40;;
13441;SDS011;6793;55.662;13.114;2023-02-28T06:26:20;0.40;;;0.40;;
13441;SDS011;6793;55.662;13.114;2023-02-28T06:28:47;0.40;;;0.40;;
13441;SDS011;6793;55.662;13.114;2023-02-28T06:31:15;0.50;;;0.50;;
13441;SDS011;6793;55.662;13.114;2023-02-28T06:33:44;0.53;;;0.53;;
13441;SDS011;6793;55.662;13.114;2023-02-28T06:36:11;0.50;;;0.50;;
13441;SDS011;6793;55.662;13.114;2023-02-28T06:38:39;0.70;;;0.70;;
13441;SDS011;6793;55.662;13.114;2023-02-28T06:41:06;0.60;;;0.60;;
13441;SDS011;6793;55.662;13.114;2023-02-28T06:43:34;0.70;;;0.70;;
13441;SDS011;6793;55.662;13.114;2023-02-28T06:46:03;0.77;;;0.77;;
13441;SDS011;6793;55.662;13.114;2023-02-28T06:48:30;0.70;;;0.70;;
13441;SDS011;6793;55.662;13.114;2023-02-28T06:51:02;0.70;;;0.70;;
13441;SDS011;6793;55.662;13.114;2023-02-28T06:53:30;0.80;;;0.80;;
13441;SDS011;6793;55.662;13.114;2023-02-28T06:55:57;1.00;;;1.00;;
13441;SDS011;6793;55.662;13.114;2023-02-28T06:58:24;1.23;;;1.23;;
13441;SDS011;6793;55.662;13.114;2023-02-28T07:00:51;1.30;;;1.30;;
13441;SDS011;6793;55.662;13.114;2023-02-28T07:03:19;1.50;;;1.50;;
13441;SDS011;6793;55.662;13.114;2023-02-28T07:05:46;1.70;;;1.70;;
13441;SDS011;6793;55.662;13.114;2023-02-28T07:08:14;1.80;;;1.80;;
13441;SDS011;6793;55.662;13.114;2023-02-28T07:10:41;1.70;;;1.70;;
13441;SDS011;6793;55.662;13.114;2023-02-28T07:13:09;1.70;;;1.70;;
13441;SDS011;6793;55.662;13.114;2023-02-28T07:15:36;1.60;;;1.60;;
13441;SDS011;6793;55.662;13.114;2023-02-28T07:18:03;1.50;;;1.50;;
13441;SDS011;6793;55.662;13.114;2023-02-28T07:20:31;1.80;;;1.80;;
13441;SDS011;6793;55.662;13.114;2023-02-28T07:22:58;1.60;;;1.60;;
13441;SDS011;6793;55.662;13.114;2023-02-28T07:25:27;1.50;;;1.50;;
13441;SDS011;6793;55.662;13.114;2023-02-28T07:27:54;1.90;;;1.90;;
13441;SDS011;6793;55.662;13.114;2023-02-28T07:30:21;2.20;;;2.20;;
13441;SDS011;6793;55.662;13.114;2023-02-28T07:32:49;2.50;;;2.50;;
13441;SDS011;6793;55.662;13.114;2023-02-28T07:35:16;3.80;;;3.70;;
13441;SDS011;6793;55.662;13.114;2023-02-28T07:37:44;3.30;;;3.20;;
13441;SDS011;6793;55.662;13.114;2023-02-28T07:40:12;2.00;;;2.00;;
13441;SDS011;6793;55.662;13.114;2023-02-28T07:42:41;1.30;;;1.30;;
13441;SDS011;6793;55.662;13.114;2023-02-28T07:45:09;0.90;;;0.90;;
13441;SDS011;6793;55.662;13.114;2023-02-28T07:47:36;0.80;;;0.80;;
13441;SDS011;6793;55.662;13.114;2023-02-28T07:50:04;1.17;;;1.17;;
13441;SDS011;6793;55.662;13.114;2023-02-28T07:52:31;1.70;;;1.70;;
13441;SDS011;6793;55.662;13.114;2023-02-28T07:54:58;1.90;;;1.90;;
13441;SDS011;6793;55.662;13.114;2023-02-28T07:57:25;1.80;;;1.80;;
13441;SDS011;6793;55.662;13.114;2023-02-28T07:59:53;1.43;;;1.43;;
13441;SDS011;6793;55.662;13.114;2023-02-28T08:02:21;1.20;;;1.20;;
13441;SDS011;6793;55.662;13.114;2023-02-28T08:04:48;1.00;;;1.00;;
13441;SDS011;6793;55.662;13.114;2023-02-28T08:07:18;0.90;;;0.90;;
13441;SDS011;6793;55.662;13.114;2023-02-28T08:09:45;0.70;;;0.70;;
13441;SDS011;6793;55.662;13.114;2023-02-28T08:12:12;0.30;;;0.30;;
13441;SDS011;6793;55.662;13.114;2023-02-28T08:14:39;0.20;;;0.20;;
13441;SDS011;6793;55.662;13.114;2023-02-28T08:17:08;0.20;;;0.20;;
13441;SDS011;6793;55.662;13.114;2023-02-28T08:19:35;0.10;;;0.10;;
13441;SDS011;6793;55.662;13.114;2023-02-28T08:22:02;0.20;;;0.20;;
13441;SDS011;6793;55.662;13.114;2023-02-28T08:24:29;0.10;;;0.10;;
13441;SDS011;6793;55.662;13.114;2023-02-28T08:26:58;0.20;;;0.20;;
13441;SDS011;6793;55.662;13.114;2023-02-28T08:29:25;0.20;;;0.20;;
13441;SDS011;6793;55.662;13.114;2023-02-28T08:31:52;0.30;;;0.30;;
13441;SDS011;6793;55.662;13.114;2023-02-28T08:34:20;0.40;;;0.40;;
13441;SDS011;6793;55.662;13.114;2023-02-28T08:36:48;0.30;;;0.30;;
13441;SDS011;6793;55.662;13.114;2023-02-28T08:39:15;0.20;;;0.20;;
13441;SDS011;6793;55.662;13.114;2023-02-28T08:41:42;0.30;;;0.30;;
13441;SDS011;6793;55.662;13.114;2023-02-28T08:44:10;0.20;;;0.20;;
13441;SDS011;6793;55.662;13.114;2023-02-28T08:46:37;0.20;;;0.20;;
13441;SDS011;6793;55.662;13.114;2023-02-28T08:49:04;0.10;;;0.10;;
13441;SDS011;6793;55.662;13.114;2023-02-28T08:51:33;0.10;;;0.10;;
13441;SDS011;6793;55.662;13.114;2023-02-28T08:54:00;0.00;;;0.00;;
13441;SDS011;6793;55.662;13.114;2023-02-28T08:56:27;0.00;;;0.00;;
13441;SDS011;6793;55.662;13.114;2023-02-28T08:58:56;0.00;;;0.00;;
13441;SDS011;6793;55.662;13.114;2023-02-28T09:01:23;0.00;;;0.00;;
13441;SDS011;6793;55.662;13.114;2023-02-28T09:03:52;0.00;;;0.00;;
13441;SDS011;6793;55.662;13.114;2023-02-28T09:06:20;0.00;;;0.00;;
13441;SDS011;6793;55.662;13.114;2023-02-28T09:08:48;0.00;;;0.00;;
13441;SDS011;6793;55.662;13.114;2023-02-28T09:11:15;0.00;;;0.00;;
13441;SDS011;6793;55.662;13.114;2023-02-28T09:13:44;0.00;;;0.00;;
13441;SDS011;6793;55.662;13.114;2023-02-28T09:16:12;0.00;;;0.00;;
13441;SDS011;6793;55.662;13.114;2023-02-28T09:18:39;0.00;;;0.00;;
13441;SDS011;6793;55.662;13.114;2023-02-28T09:21:07;0.00;;;0.00;;
13441;SDS011;6793;55.662;13.114;2023-02-28T09:23:34;0.00;;;0.00;;
13441;SDS011;6793;55.662;13.114;2023-02-28T09:26:04;0.00;;;0.00;;
13441;SDS011;6793;55.662;13.114;2023-02-28T09:28:32;0.00;;;0.00;;
13441;SDS011;6793;55.662;13.114;2023-02-28T09:30:59;0.00;;;0.00;;
13441;SDS011;6793;55.662;13.114;2023-02-28T09:33:26;0.00;;;0.00;;
13441;SDS011;6793;55.662;13.114;2023-02-28T09:35:57;0.00;;;0.00;;
13441;SDS011;6793;55.662;13.114;2023-02-28T09:38:24;0.00;;;0.00;;
13441;SDS011;6793;55.662;13.114;2023-02-28T09:40:53;0.00;;;0.00;;
13441;SDS011;6793;55.662;13.114;2023-02-28T09:43:22;0.00;;;0.00;;
13441;SDS011;6793;55.662;13.114;2023-02-28T09:45:51;0.00;;;0.00;;
13441;SDS011;6793;55.662;13.114;2023-02-28T09:48:25;0.00;;;0.00;;
13441;SDS011;6793;55.662;13.114;2023-02-28T09:50:55;0.00;;;0.00;;
13441;SDS011;6793;55.662;13.114;2023-02-28T09:53:26;0.00;;;0.00;;
13441;SDS011;6793;55.662;13.114;2023-02-28T09:55:57;0.00;;;0.00;;
13441;SDS011;6793;55.662;13.114;2023-02-28T09:58:28;0.00;;;0.00;;
13441;SDS011;6793;55.662;13.114;2023-02-28T10:00:59;0.00;;;0.00;;
13441;SDS011;6793;55.662;13.114;2023-02-28T10:03:29;0.00;;;0.00;;
13441;SDS011;6793;55.662;13.114;2023-02-28T10:05:59;0.00;;;0.00;;
13441;SDS011;6793;55.662;13.114;2023-02-28T10:08:30;0.00;;;0.00;;
13441;SDS011;6793;55.662;13.114;2023-02-28T10:10:59;0.00;;;0.00;;
13441;SDS011;6793;55.662;13.114;2023-02-28T10:13:31;0.00;;;0.00;;
13441;SDS011;6793;55.662;13.114;2023-02-28T10:16:01;0.00;;;0.00;;
13441;SDS011;6793;55.662;13.114;2023-02-28T10:18:30;0.00;;;0.00;;
13441;SDS011;6793;55.662;13.114;2023-02-28T10:20:57;0.00;;;0.00;;
13441;SDS011;6793;55.662;13.114;2023-02-28T10:23:27;0.00;;;0.00;;
13441;SDS011;6793;55.662;13.114;2023-02-28T10:25:55;0.00;;;0.00;;
13441;SDS011;6793;55.662;13.114;2023-02-28T10:28:24;0.00;;;0.00;;
13441;SDS011;6793;55.662;13.114;2023-02-28T10:30:53;0.00;;;0.00;;
13441;SDS011;6793;55.662;13.114;2023-02-28T10:33:22;0.00;;;0.00;;
13441;SDS011;6793;55.662;13.114;2023-02-28T10:35:49;0.00;;;0.00;;
13441;SDS011;6793;55.662;13.114;2023-02-28T10:38:19;0.00;;;0.00;;
13441;SDS011;6793;55.662;13.114;2023-02-28T10:40:47;0.00;;;0.00;;
13441;SDS011;6793;55.662;13.114;2023-02-28T10:43:18;0.00;;;0.00;;
13441;SDS011;6793;55.662;13.114;2023-02-28T10:45:55;0.00;;;0.00;;
13441;SDS011;6793;55.662;13.114;2023-02-28T10:48:32;0.00;;;0.00;;
13441;SDS011;6793;55.662;13.114;2023-02-28T10:51:00;0.00;;;0.00;;
13441;SDS011;6793;55.662;13.114;2023-02-28T10:53:30;0.00;;;0.00;;
13441;SDS011;6793;55.662;13.114;2023-02-28T10:55:59;0.00;;;0.00;;
13441;SDS011;6793;55.662;13.114;2023-02-28T10:58:28;0.00;;;0.00;;
13441;SDS011;6793;55.662;13.114;2023-02-28T11:00:57;0.00;;;0.00;;
13441;SDS011;6793;55.662;13.114;2023-02-28T11:03:31;0.00;;;0.00;;
13441;SDS011;6793;55.662;13.114;2023-02-28T11:06:03;0.00;;;0.00;;
13441;SDS011;6793;55.662;13.114;2023-02-28T11:08:31;0.00;;;0.00;;
13441;SDS011;6793;55.662;13.114;2023-02-28T11:10:58;0.00;;;0.00;;
13441;SDS011;6793;55.662;13.114;2023-02-28T11:13:27;0.00;;;0.00;;
13441;SDS011;6793;55.662;13.114;2023-02-28T11:15:57;0.00;;;0.00;;
13441;SDS011;6793;55.662;13.114;2023-02-28T11:18:27;0.00;;;0.00;;
13441;SDS011;6793;55.662;13.114;2023-02-28T11:20:56;0.00;;;0.00;;
13441;SDS011;6793;55.662;13.114;2023-02-28T11:23:24;0.00;;;0.00;;
13441;SDS011;6793;55.662;13.114;2023-02-28T11:25:52;0.00;;;0.00;;
13441;SDS011;6793;55.662;13.114;2023-02-28T11:28:26;0.00;;;0.00;;
13441;SDS011;6793;55.662;13.114;2023-02-28T11:31:01;0.00;;;0.00;;
13441;SDS011;6793;55.662;13.114;2023-02-28T11:33:29;0.00;;;0.00;;
13441;SDS011;6793;55.662;13.114;2023-02-28T11:35:57;0.00;;;0.00;;
13441;SDS011;6793;55.662;13.114;2023-02-28T11:38:25;0.00;;;0.00;;
13441;SDS011;6793;55.662;13.114;2023-02-28T11:40:58;0.00;;;0.00;;
13441;SDS011;6793;55.662;13.114;2023-02-28T11:43:30;0.00;;;0.00;;
13441;SDS011;6793;55.662;13.114;2023-02-28T11:46:09;0.00;;;0.00;;
13441;SDS011;6793;55.662;13.114;2023-02-28T11:48:42;0.00;;;0.00;;
13441;SDS011;6793;55.662;13.114;2023-02-28T11:51:12;0.00;;;0.00;;
13441;SDS011;6793;55.662;13.114;2023-02-28T11:53:50;0.00;;;0.00;;
13441;SDS011;6793;55.662;13.114;2023-02-28T11:56:23;0.00;;;0.00;;
13441;SDS011;6793;55.662;13.114;2023-02-28T11:58:53;0.00;;;0.00;;
13441;SDS011;6793;55.662;13.114;2023-02-28T12:01:26;0.00;;;0.00;;
13441;SDS011;6793;55.662;13.114;2023-02-28T12:03:58;0.00;;;0.00;;
13441;SDS011;6793;55.662;13.114;2023-02-28T12:06:28;0.00;;;0.00;;
13441;SDS011;6793;55.662;13.114;2023-02-28T12:09:02;0.00;;;0.00;;
13441;SDS011;6793;55.662;13.114;2023-02-28T12:11:38;0.00;;;0.00;;
13441;SDS011;6793;55.662;13.114;2023-02-28T12:14:32;0.00;;;0.00;;
13441;SDS011;6793;55.662;13.114;2023-02-28T12:17:10;0.00;;;0.00;;
13441;SDS011;6793;55.662;13.114;2023-02-28T12:19:41;0.00;;;0.00;;
13441;SDS011;6793;55.662;13.114;2023-02-28T12:22:22;0.00;;;0.00;;
13441;SDS011;6793;55.662;13.114;2023-02-28T12:24:58;0.00;;;0.00;;
13441;SDS011;6793;55.662;13.114;2023-02-28T12:27:29;0.00;;;0.00;;
13441;SDS011;6793;55.662;13.114;2023-02-28T12:29:57;0.00;;;0.00;;
13441;SDS011;6793;55.662;13.114;2023-02-28T12:32:27;0.00;;;0.00;;
13441;SDS011;6793;55.662;13.114;2023-02-28T12:34:57;0.00;;;0.00;;
13441;SDS011;6793;55.662;13.114;2023-02-28T12:37:27;0.00;;;0.00;;
13441;SDS011;6793;55.662;13.114;2023-02-28T12:39:55;0.00;;;0.00;;
13441;SDS011;6793;55.662;13.114;2023-02-28T12:42:24;0.00;;;0.00;;
13441;SDS011;6793;55.662;13.114;2023-02-28T12:44:54;0.00;;;0.00;;
13441;SDS011;6793;55.662;13.114;2023-02-28T12:47:22;0.00;;;0.00;;
13441;SDS011;6793;55.662;13.114;2023-02-28T12:49:51;0.00;;;0.00;;
13441;SDS011;6793;55.662;13.114;2023-02-28T12:52:20;0.00;;;0.00;;
13441;SDS011;6793;55.662;13.114;2023-02-28T12:54:49;0.00;;;0.00;;
13441;SDS011;6793;55.662;13.114;2023-02-28T12:57:22;0.00;;;0.00;;
13441;SDS011;6793;55.662;13.114;2023-02-28T12:59:52;0.00;;;0.00;;
13441;SDS011;6793;55.662;13.114;2023-02-28T13:05:26;0.00;;;0.00;;
13441;SDS011;6793;55.662;13.114;2023-02-28T13:08:04;0.00;;;0.00;;
13441;SDS011;6793;55.662;13.114;2023-02-28T13:10:39;0.00;;;0.00;;
13441;SDS011;6793;55.662;13.114;2023-02-28T13:13:10;0.00;;;0.00;;
13441;SDS011;6793;55.662;13.114;2023-02-28T13:15:40;0.00;;;0.00;;
13441;SDS011;6793;55.662;13.114;2023-02-28T13:18:20;0.00;;;0.00;;
13441;SDS011;6793;55.662;13.114;2023-02-28T13:20:53;0.00;;;0.00;;
13441;SDS011;6793;55.662;13.114;2023-02-28T13:26:02;0.00;;;0.00;;
13441;SDS011;6793;55.662;13.114;2023-02-28T13:31:15;0.00;;;0.00;;
13441;SDS011;6793;55.662;13.114;2023-02-28T13:36:28;0.00;;;0.00;;
13441;SDS011;6793;55.662;13.114;2023-02-28T13:38:57;0.00;;;0.00;;
13441;SDS011;6793;55.662;13.114;2023-02-28T13:44:08;0.00;;;0.00;;
13441;SDS011;6793;55.662;13.114;2023-02-28T13:46:37;0.00;;;0.00;;
13441;SDS011;6793;55.662;13.114;2023-02-28T13:49:25;0.00;;;0.00;;
13441;SDS011;6793;55.662;13.114;2023-02-28T13:51:56;0.00;;;0.00;;
13441;SDS011;6793;55.662;13.114;2023-02-28T13:54:32;0.00;;;0.00;;
13441;SDS011;6793;55.662;13.114;2023-02-28T13:57:09;0.00;;;0.00;;
13441;SDS011;6793;55.662;13.114;2023-02-28T13:59:40;0.00;;;0.00;;
13441;SDS011;6793;55.662;13.114;2023-02-28T14:05:00;0.00;;;0.00;;
13441;SDS011;6793;55.662;13.114;2023-02-28T14:07:30;0.00;;;0.00;;
13441;SDS011;6793;55.662;13.114;2023-02-28T14:09:59;0.00;;;0.00;;
13441;SDS011;6793;55.662;13.114;2023-02-28T14:15:25;0.00;;;0.00;;
13441;SDS011;6793;55.662;13.114;2023-02-28T14:17:53;0.00;;;0.00;;
13441;SDS011;6793;55.662;13.114;2023-02-28T14:20:21;0.00;;;0.00;;
13441;SDS011;6793;55.662;13.114;2023-02-28T14:22:53;0.00;;;0.00;;
13441;SDS011;6793;55.662;13.114;2023-02-28T14:25:23;0.00;;;0.00;;
13441;SDS011;6793;55.662;13.114;2023-02-28T14:28:02;0.00;;;0.00;;
13441;SDS011;6793;55.662;13.114;2023-02-28T14:33:23;0.00;;;0.00;;
13441;SDS011;6793;55.662;13.114;2023-02-28T14:35:56;0.00;;;0.00;;
13441;SDS011;6793;55.662;13.114;2023-02-28T14:38:30;0.00;;;0.00;;
13441;SDS011;6793;55.662;13.114;2023-02-28T14:41:00;0.00;;;0.00;;
13441;SDS011;6793;55.662;13.114;2023-02-28T14:43:29;0.00;;;0.00;;
13441;SDS011;6793;55.662;13.114;2023-02-28T14:45:57;0.00;;;0.00;;
13441;SDS011;6793;55.662;13.114;2023-02-28T14:48:26;0.00;;;0.00;;
13441;SDS011;6793;55.662;13.114;2023-02-28T14:50:55;0.00;;;0.00;;
13441;SDS011;6793;55.662;13.114;2023-02-28T14:53:24;0.00;;;0.00;;
13441;SDS011;6793;55.662;13.114;2023-02-28T14:55:53;0.00;;;0.00;;
13441;SDS011;6793;55.662;13.114;2023-02-28T14:58:22;0.00;;;0.00;;
13441;SDS011;6793;55.662;13.114;2023-02-28T15:00:50;0.00;;;0.00;;
13441;SDS011;6793;55.662;13.114;2023-02-28T15:03:19;0.00;;;0.00;;
13441;SDS011;6793;55.662;13.114;2023-02-28T15:05:53;0.00;;;0.00;;
13441;SDS011;6793;55.662;13.114;2023-02-28T15:08:21;0.00;;;0.00;;
13441;SDS011;6793;55.662;13.114;2023-02-28T15:10:54;0.00;;;0.00;;
13441;SDS011;6793;55.662;13.114;2023-02-28T15:13:22;0.00;;;0.00;;
13441;SDS011;6793;55.662;13.114;2023-02-28T15:15:51;0.00;;;0.00;;
13441;SDS011;6793;55.662;13.114;2023-02-28T15:18:25;0.00;;;0.00;;
13441;SDS011;6793;55.662;13.114;2023-02-28T15:20:53;0.00;;;0.00;;
13441;SDS011;6793;55.662;13.114;2023-02-28T15:23:21;0.00;;;0.00;;
13441;SDS011;6793;55.662;13.114;2023-02-28T15:25:48;0.00;;;0.00;;
13441;SDS011;6793;55.662;13.114;2023-02-28T15:28:18;0.00;;;0.00;;